• Join FlightAware (Why Join?)
  • Login
  • US Flag 
06:14AM EDT


 

Airport Tracker/Info


-or-


 

Live Flight TrackerFlight Track Log ✈ SKW6492 ✈ 07-May-2013 ✈ KDEN - KCOD

Flight Track Log - Related Links

Times and Time Zones

All times are in EDT time to prevent confusion due to time zone crossing. See the SKW6492 flight status page for this flight to view local times or setup timezone preferences in your user account.

Time Position Orientation Groundspeed Altitude Reporting Facility
EDT Latitude Longitude Course Direction KTS MPH feet Rate Location/Type
10:24PM 39.8833 -104.5833 346° North 207 238 6,700  Level Denver TRACON
10:25PM 39.9333 -104.5000 52° Northeast 274 315 9,000 2,100 Climbing Denver TRACON
10:26PM 39.9833 -104.4333 46° Northeast 289 333 10,900 2,040 Climbing Denver TRACON
10:27PM 40.1709 -104.7729 347° North  Level FlightAware Approximate
10:27PM 40.0500 -104.4333 360° North 292 336 13,100  Level Denver TRACON
10:28PM 40.2786 -104.8052 347° North  Level FlightAware Approximate
10:28PM 40.1333 -104.4833 335° Northwest 302 348 15,100  Level Denver TRACON
10:29PM 40.3860 -104.8398 346° North  Level FlightAware Approximate
10:29PM 40.1431 -104.4842 356° North 298 343 15,300  Level Denver Center
10:30PM 40.4932 -104.8755 346° North  Level FlightAware Approximate
10:30PM 40.2431 -104.5411 337° Northwest 321 369 17,700  Level Denver Center
10:31PM 40.3306 -104.5892 337° Northwest 347 399 18,100 780 Climbing Denver Center
10:32PM 40.4350 -104.6500 336° Northwest 380 437 19,300 1,140 Climbing Denver Center
10:33PM 40.5333 -104.7058 337° Northwest 382 440 20,500 1,140 Climbing Denver Center
10:34PM 40.6333 -104.7628 337° Northwest 391 450 21,700 1,140 Climbing Denver Center
10:35PM 40.7328 -104.8228 335° Northwest 388 447 22,900 1,140 Climbing Denver Center
10:36PM 40.8325 -104.8728 339° North 387 445 24,100 840 Climbing Denver Center
10:37PM 40.9389 -104.9264 339° North 403 464 24,700 480 Climbing Denver Center
10:38PM 41.0475 -104.9753 341° North 413 475 25,200 540 Climbing Denver Center
10:39PM 41.1733 -105.0386 339° North 430 495 25,900 780 Climbing Denver Center
10:40PM 41.2800 -105.0925 339° North 428 493 26,800 780 Climbing Denver Center
10:41PM 41.4050 -105.1525 340° North 427 491 27,600 660 Climbing Denver Center
10:42PM 41.5131 -105.2092 339° North 433 498 28,200 480 Climbing Denver Center
10:43PM 41.6119 -105.2856 330° Northwest 432 497 28,700 540 Climbing Denver Center
10:44PM 41.7186 -105.4025 321° Northwest 440 506 29,400 780 Climbing Denver Center
10:45PM 41.8072 -105.4975 321° Northwest 431 496 30,400 900 Climbing Denver Center
10:46PM 41.9094 -105.6078 321° Northwest 424 488 31,500 660 Climbing Denver Center
10:47PM 42.0092 -105.7164 321° Northwest 414 476 32,000 240 Climbing Denver Center
10:48PM 42.1103 -105.8286 321° Northwest 419 482 32,000  Level Denver Center
10:49PM 42.2014 -105.9292 321° Northwest 438 504 32,000  Level Denver Center
10:50PM 42.2950 -106.0322 321° Northwest 450 518 32,000  Level Denver Center
10:51PM 42.4036 -106.1547 320° Northwest 453 521 32,000  Level Denver Center
10:53PM 42.4978 -106.2594 321° Northwest 455 524 32,000  Level Denver Center
10:54PM 42.5922 -106.3656 320° Northwest 459 528 32,000  Level Denver Center
10:55PM 42.6867 -106.4714 321° Northwest 458 527 32,000  Level Denver Center
10:56PM 42.7961 -106.5950 320° Northwest 457 526 32,000  Level Denver Center
10:57PM 42.9056 -106.7194 320° Northwest 458 527 32,000  Level Denver Center
10:58PM 42.9978 -106.8281 319° Northwest 456 525 32,000  Level Denver Center
10:59PM 43.0922 -106.9339 321° Northwest 457 526 32,000  Level Denver Center
10:59PM 43.1733 -107.0314 319° Northwest 455 524 32,000  Level Salt Lake Center
11:00PM 43.2667 -107.1394 320° Northwest 457 526 32,000  Level Salt Lake Center
11:01PM 43.2986 -107.1733 322° Northwest 456 525 32,000  Level Denver Center
11:02PM 43.3931 -107.2811 320° Northwest 459 528 32,000  Level Denver Center
11:02PM 43.4706 -107.3725 319° Northwest 461 531 32,000  Level Salt Lake Center
11:03PM 43.5644 -107.4825 320° Northwest 463 533 32,000  Level Salt Lake Center
11:04PM 43.6731 -107.6108 320° Northwest 460 529 32,000  Level Salt Lake Center
11:06PM 43.7667 -107.7217 319° Northwest 462 532 32,000  Level Salt Lake Center
11:07PM 43.8611 -107.8350 319° Northwest 466 536 32,000 -1,800 Level Salt Lake Center
11:08PM 43.9697 -107.9653 319° Northwest 461 531 28,400 -3,480 Descending Salt Lake Center
11:09PM 44.0539 -108.0858 314° West 453 521 25,000 -3,300 Descending Salt Lake Center
11:10PM 44.1333 -108.2053 313° West 440 506 21,700 -3,600 Descending Salt Lake Center
11:11PM 44.2197 -108.3411 312° West 424 488 17,700 -3,660 Descending Salt Lake Center
11:12PM 44.2911 -108.4497 313° West 410 472 14,300 -2,820 Descending Salt Lake Center
11:13PM 44.3550 -108.5550 310° West 391 450 12,000 -1,320 Descending Salt Lake Center
11:14PM 44.3944 -108.6697 296° West 320 368 11,600 -960 Descending Salt Lake Center
11:15PM 44.4053 -108.7686 279° West 287 330 10,100 -1,440 Descending Salt Lake Center
11:16PM 44.4175 -108.8806 279° West 268 308 8,700 -1,200 Descending Salt Lake Center
11:17PM 44.4308 -108.9761 281° West 264 304 7,700 -720 Descending Salt Lake Center
11:18PM 44.4411 -109.0633 279° West 252 290 7,300 -420 Descending Salt Lake Center